Time;durP1;ratioP1;P1;durP2;ratioP2;P2;SDS_P1;SDS_P2;PMS_P1;PMS_P2;Temp;Humidity;BMP_temperature;BMP_pressure;BME280_temperature;BME280_humidity;BME280_pressure;Samples;Min_cycle;Max_cycle;Signal;HPM_P1;HPM_P2
2021/12/10 00:01:49;;;;;;;10.27;7.80;;;3.30;99.90;;;;;;5039839;28;20196;-59
2021/12/10 00:04:19;;;;;;;12.00;7.83;;;3.30;99.90;;;;;;5041630;28;20226;-60
2021/12/10 00:06:54;;;;;;;12.77;8.27;;;3.40;99.90;;;;;;5029394;28;20285;-59
2021/12/10 00:09:36;;;;;;;10.07;8.43;;;3.30;99.90;;;;;;5040415;28;20229;-59
2021/12/10 00:12:11;;;;;;;13.00;8.93;;;3.30;99.90;;;;;;5039940;28;20282;-59
2021/12/10 00:14:38;;;;;;;8.43;6.73;;;3.10;99.90;;;;;;5039204;28;20258;-59
2021/12/10 00:17:09;;;;;;;7.50;6.07;;;3.00;99.90;;;;;;5039904;28;20253;-59
2021/12/10 00:19:47;;;;;;;8.67;7.03;;;2.90;99.90;;;;;;5039168;28;20222;-59
2021/12/10 00:22:20;;;;;;;10.27;7.30;;;2.80;99.90;;;;;;5037774;28;20227;-59
2021/12/10 00:24:49;;;;;;;15.07;7.93;;;2.70;1.00;;;;;;5019643;28;20199;-59
2021/12/10 00:27:27;;;;;;;18.30;9.83;;;2.60;1.00;;;;;;5039901;28;20223;-59
2021/12/10 00:30:06;;;;;;;12.37;8.63;;;2.50;1.00;;;;;;5038336;28;20219;-59
2021/12/10 00:32:40;;;;;;;10.97;8.80;;;2.30;1.00;;;;;;5040675;28;20242;-59
2021/12/10 00:35:17;;;;;;;11.27;8.27;;;2.20;1.00;;;;;;5041709;28;20560;-60
2021/12/10 00:37:44;;;;;;;13.57;9.30;;;2.10;1.00;;;;;;5039129;28;20248;-60
2021/12/10 00:40:13;;;;;;;19.20;10.27;;;1.90;1.00;;;;;;5039647;28;21212;-59
2021/12/10 00:42:40;;;;;;;16.40;9.30;;;2.00;99.90;;;;;;5037932;28;20276;-60
2021/12/10 00:45:11;;;;;;;25.90;14.50;;;2.00;1.00;;;;;;5022490;28;20266;-59
2021/12/10 00:47:39;;;;;;;18.60;11.50;;;1.90;1.00;;;;;;5040875;28;20203;-58
2021/12/10 00:50:10;;;;;;;16.77;10.70;;;1.90;99.90;;;;;;5039363;28;20269;-59
2021/12/10 00:52:37;;;;;;;14.93;8.97;;;1.90;1.00;;;;;;5040424;28;20200;-59
2021/12/10 00:55:06;;;;;;;14.63;9.77;;;1.90;1.00;;;;;;5023765;28;20227;-59
2021/12/10 00:57:33;;;;;;;14.03;9.70;;;1.90;1.00;;;;;;5040920;28;20203;-59
2021/12/10 01:00:00;;;;;;;16.57;10.77;;;1.90;1.00;;;;;;5038733;28;20202;-59
2021/12/10 01:02:27;;;;;;;14.23;10.10;;;1.90;1.00;;;;;;5039415;28;20207;-59
2021/12/10 01:04:58;;;;;;;16.67;9.57;;;1.80;1.00;;;;;;5040857;28;20231;-59
2021/12/10 01:07:30;;;;;;;15.50;9.90;;;1.70;1.00;;;;;;5040340;28;20269;-59
2021/12/10 01:10:02;;;;;;;15.90;10.50;;;1.50;1.00;;;;;;5034365;28;20286;-59
2021/12/10 01:12:37;;;;;;;12.77;9.83;;;1.50;1.00;;;;;;5036623;28;20191;-60
2021/12/10 01:23:55;;;;;;;14.07;10.00;;;1.40;99.90;;;;;;5036962;28;20314;-59
2021/12/10 01:29:10;;;;;;;13.30;10.30;;;1.50;1.00;;;;;;5035361;28;20560;-59
2021/12/10 01:31:38;;;;;;;15.10;10.67;;;1.50;1.00;;;;;;5021464;28;20199;-59
2021/12/10 01:34:07;;;;;;;15.10;9.70;;;1.50;1.00;;;;;;5037418;28;20191;-59
2021/12/10 01:36:35;;;;;;;16.27;10.30;;;1.40;1.00;;;;;;5038659;28;20257;-59
2021/12/10 01:39:05;;;;;;;14.40;10.40;;;1.40;1.00;;;;;;5038858;28;20284;-59
2021/12/10 01:41:36;;;;;;;12.60;9.70;;;1.40;1.00;;;;;;5038973;28;20235;-58
2021/12/10 01:44:14;;;;;;;12.93;9.87;;;1.40;1.00;;;;;;5036772;28;20207;-58
2021/12/10 01:46:44;;;;;;;12.63;9.50;;;1.40;99.90;;;;;;5035691;28;20222;-59
2021/12/10 01:49:12;;;;;;;17.27;9.37;;;1.30;99.90;;;;;;5039989;28;20251;-59
2021/12/10 01:51:42;;;;;;;12.37;10.10;;;1.30;99.90;;;;;;5022030;28;20294;-60
2021/12/10 01:54:19;;;;;;;13.87;10.10;;;1.20;99.90;;;;;;5020648;28;20208;-60
2021/12/10 01:56:47;;;;;;;13.73;9.40;;;1.20;99.90;;;;;;5038406;28;20302;-60
2021/12/10 01:59:16;;;;;;;15.13;10.17;;;1.20;1.00;;;;;;5010568;28;20243;-60
2021/12/10 02:01:49;;;;;;;14.27;9.17;;;1.20;99.90;;;;;;5039865;28;20184;-59
2021/12/10 02:04:19;;;;;;;12.23;9.40;;;1.10;99.90;;;;;;5037970;28;20578;-59
2021/12/10 02:06:47;;;;;;;13.17;9.57;;;1.10;1.00;;;;;;5037838;28;20192;-60
2021/12/10 02:09:14;;;;;;;11.23;9.57;;;1.10;1.00;;;;;;5020924;28;20227;-60
2021/12/10 02:11:43;;;;;;;15.63;10.67;;;1.10;1.00;;;;;;5020052;28;20611;-59
2021/12/10 02:14:10;;;;;;;15.63;10.40;;;1.00;1.00;;;;;;5021483;28;20719;-59
2021/12/10 02:16:38;;;;;;;13.27;9.70;;;1.00;1.00;;;;;;5020932;28;20306;-60
2021/12/10 02:19:07;;;;;;;12.77;9.53;;;1.10;1.00;;;;;;5034401;28;20246;-59
2021/12/10 02:21:36;;;;;;;13.67;10.00;;;1.10;1.00;;;;;;5037297;28;20683;-59
2021/12/10 02:24:04;;;;;;;14.07;9.30;;;1.10;1.00;;;;;;5023371;28;20664;-60
2021/12/10 02:26:47;;;;;;;12.13;9.43;;;1.10;1.00;;;;;;5037052;28;20582;-59
2021/12/10 02:29:18;;;;;;;13.87;9.80;;;1.10;1.00;;;;;;5037969;28;20223;-59
2021/12/10 02:31:46;;;;;;;14.60;10.20;;;1.20;52.40;;;;;;5025326;28;20196;-59
2021/12/10 02:34:13;;;;;;;17.47;10.67;;;1.20;1.00;;;;;;5036675;28;20223;-59
2021/12/10 02:36:42;;;;;;;14.83;10.83;;;1.20;1.00;;;;;;5019344;28;20220;-59
2021/12/10 02:39:13;;;;;;;17.60;9.93;;;1.10;1.00;;;;;;5026089;28;20255;-59
2021/12/10 02:41:41;;;;;;;13.90;10.23;;;1.20;1.00;;;;;;5037656;28;20256;-59
2021/12/10 02:44:11;;;;;;;16.07;10.30;;;1.20;1.00;;;;;;5037670;28;20247;-59
2021/12/10 02:46:39;;;;;;;15.23;10.60;;;1.30;1.00;;;;;;5037932;28;20261;-59
2021/12/10 02:49:09;;;;;;;13.43;10.20;;;1.40;1.00;;;;;;5019567;28;20722;-59
2021/12/10 02:51:37;;;;;;;14.03;10.63;;;1.40;1.00;;;;;;5037236;28;20278;-59
2021/12/10 02:54:08;;;;;;;12.23;10.13;;;1.50;1.00;;;;;;5037491;28;20250;-59
2021/12/10 02:56:36;;;;;;;15.77;10.07;;;1.60;99.90;;;;;;5036923;28;20624;-59
2021/12/10 02:59:03;;;;;;;15.53;9.83;;;1.60;99.90;;;;;;5036772;28;20223;-59
2021/12/10 03:01:44;;;;;;;12.73;9.40;;;1.70;92.80;;;;;;5015938;28;21065;-60
2021/12/10 03:04:12;;;;;;;15.67;9.63;;;1.70;1.00;;;;;;5037826;28;20227;-59
2021/12/10 03:06:53;;;;;;;14.57;9.70;;;1.80;1.00;;;;;;5037541;28;20625;-59
2021/12/10 03:09:22;;;;;;;18.83;10.17;;;1.80;1.00;;;;;;5032779;28;20675;-60
2021/12/10 03:11:50;;;;;;;12.37;9.17;;;1.70;1.00;;;;;;5034801;28;20258;-59
2021/12/10 03:14:20;;;;;;;10.63;8.63;;;1.70;1.00;;;;;;5032678;28;20231;-59
2021/12/10 03:16:49;;;;;;;15.07;8.87;;;2.90;99.90;;;;;;5039136;28;20215;-60
2021/12/10 03:19:17;;;;;;;12.00;9.13;;;1.60;1.00;;;;;;5040545;28;20238;-59
2021/12/10 03:21:45;;;;;;;13.37;9.03;;;1.50;99.90;;;;;;5041287;28;20201;-60
2021/12/10 03:24:15;;;;;;;14.37;9.70;;;1.40;1.00;;;;;;5041053;28;20226;-59
2021/12/10 03:26:42;;;;;;;11.17;8.93;;;1.40;1.00;;;;;;5012420;28;20247;-59
2021/12/10 03:29:10;;;;;;;13.43;9.17;;;1.30;1.00;;;;;;5041030;28;20222;-59
2021/12/10 03:31:37;;;;;;;15.27;9.77;;;1.40;1.00;;;;;;5036367;28;20215;-59
2021/12/10 03:34:05;;;;;;;12.30;9.77;;;1.40;85.60;;;;;;5023217;28;20191;-59
2021/12/10 03:36:32;;;;;;;14.73;10.20;;;1.50;33.00;;;;;;5040411;28;20289;-59
2021/12/10 03:39:00;;;;;;;17.13;9.70;;;1.40;1.00;;;;;;5037858;28;20230;-59
2021/12/10 03:41:27;;;;;;;14.00;9.50;;;1.40;1.00;;;;;;5038910;28;20306;-59
2021/12/10 03:43:54;;;;;;;15.93;9.80;;;1.20;1.00;;;;;;5038225;28;21035;-59
2021/12/10 03:46:23;;;;;;;14.63;9.77;;;1.30;99.90;;;;;;5020061;28;20220;-60
2021/12/10 03:48:51;;;;;;;16.87;10.90;;;1.30;99.90;;;;;;5036747;28;20200;-60
2021/12/10 03:51:21;;;;;;;20.30;11.17;;;1.20;1.00;;;;;;5042948;28;20204;-60
2021/12/10 03:53:50;;;;;;;17.03;10.83;;;1.10;73.20;;;;;;5040299;28;20200;-60
2021/12/10 03:56:22;;;;;;;14.77;11.00;;;1.10;99.90;;;;;;5041012;28;20231;-59
2021/12/10 03:58:51;;;;;;;12.33;10.23;;;1.20;99.90;;;;;;5038861;28;20225;-59
2021/12/10 04:01:23;;;;;;;14.57;11.07;;;1.20;99.90;;;;;;5029763;28;20219;-59
2021/12/10 04:03:52;;;;;;;18.43;11.57;;;1.20;1.00;;;;;;5023242;28;20221;-60
2021/12/10 04:06:20;;;;;;;19.80;11.40;;;1.20;1.00;;;;;;5041128;28;20204;-60
2021/12/10 04:08:48;;;;;;;18.27;11.70;;;1.30;1.00;;;;;;5040245;28;20203;-60
2021/12/10 04:11:16;;;;;;;16.57;11.47;;;1.40;1.00;;;;;;5007127;28;20202;-60
2021/12/10 04:13:48;;;;;;;18.83;11.40;;;1.50;1.00;;;;;;5039146;28;20260;-60
2021/12/10 04:16:17;;;;;;;17.77;10.83;;;1.50;1.00;;;;;;5023091;28;20281;-60
2021/12/10 04:18:46;;;;;;;15.43;11.13;;;1.50;99.90;;;;;;5023100;28;20204;-60
2021/12/10 04:21:14;;;;;;;14.53;10.83;;;1.40;99.90;;;;;;5038324;28;20208;-59
2021/12/10 04:23:42;;;;;;;16.27;11.10;;;1.20;99.90;;;;;;5038960;28;20715;-60
2021/12/10 04:26:11;;;;;;;14.67;11.33;;;1.20;99.90;;;;;;5039841;28;20204;-59
2021/12/10 04:28:39;;;;;;;17.03;11.00;;;1.20;99.90;;;;;;5021106;28;20287;-59
2021/12/10 04:31:07;;;;;;;17.20;10.43;;;1.20;99.90;;;;;;5037301;28;20593;-60
2021/12/10 04:33:34;;;;;;;17.40;9.80;;;1.20;99.90;;;;;;5039407;28;20204;-59
2021/12/10 04:36:03;;;;;;;15.40;9.57;;;1.20;99.90;;;;;;5037545;28;20234;-59
2021/12/10 04:38:33;;;;;;;18.53;10.00;;;1.20;99.90;;;;;;5020372;28;20240;-59
2021/12/10 04:41:03;;;;;;;13.67;9.13;;;1.20;99.90;;;;;;5028383;28;20833;-59
2021/12/10 04:43:33;;;;;;;15.77;8.80;;;1.10;99.90;;;;;;5039006;28;20238;-59
2021/12/10 04:46:00;;;;;;;16.10;8.33;;;1.20;99.90;;;;;;5037949;28;20192;-59
2021/12/10 04:48:29;;;;;;;17.23;8.67;;;1.20;99.90;;;;;;5039528;28;20242;-59
2021/12/10 04:50:57;;;;;;;17.20;8.10;;;1.30;1.00;;;;;;5021087;28;20836;-59
2021/12/10 04:53:24;;;;;;;13.23;8.03;;;1.30;1.00;;;;;;5040040;28;20585;-59
2021/12/10 04:55:51;;;;;;;12.47;6.67;;;1.30;1.00;;;;;;5020143;28;20224;-59
2021/12/10 04:58:18;;;;;;;10.53;5.70;;;1.40;1.00;;;;;;5036418;28;20210;-59
2021/12/10 05:00:48;;;;;;;12.67;4.83;;;1.70;1.00;;;;;;5036385;28;20566;-59
2021/12/10 05:03:15;;;;;;;11.13;5.00;;;1.90;99.90;;;;;;5036987;28;20191;-59
2021/12/10 05:05:43;;;;;;;14.73;5.53;;;2.00;99.90;;;;;;5037586;28;20499;-59
2021/12/10 05:08:11;;;;;;;6.63;4.27;;;2.00;99.90;;;;;;5022405;28;20195;-59
2021/12/10 05:10:39;;;;;;;13.20;4.67;;;2.00;99.90;;;;;;5038758;28;20222;-59
2021/12/10 05:13:06;;;;;;;8.53;4.30;;;2.00;99.90;;;;;;5027132;28;20249;-59
2021/12/10 05:15:38;;;;;;;10.90;4.10;;;1.90;99.90;;;;;;5023254;28;20242;-59
2021/12/10 05:18:08;;;;;;;8.53;3.33;;;1.90;99.90;;;;;;5039009;28;20219;-59
2021/12/10 05:20:38;;;;;;;11.63;4.10;;;1.90;99.90;;;;;;5021079;28;20193;-59
2021/12/10 05:23:05;;;;;;;10.50;4.53;;;1.80;99.90;;;;;;5026035;28;20741;-59
2021/12/10 05:25:33;;;;;;;9.13;3.30;;;1.90;99.90;;;;;;5041032;28;20241;-59
2021/12/10 05:28:00;;;;;;;10.07;3.47;;;1.90;99.90;;;;;;5040176;28;21381;-59
2021/12/10 05:30:30;;;;;;;7.60;4.03;;;2.10;1.00;;;;;;5039016;28;21137;-59
2021/12/10 05:33:00;;;;;;;7.97;3.23;;;2.20;1.00;;;;;;5022426;28;20195;-59
2021/12/10 05:35:29;;;;;;;7.10;3.03;;;2.30;1.00;;;;;;5010540;28;20841;-59
2021/12/10 05:37:56;;;;;;;9.47;3.23;;;2.20;1.00;;;;;;5039754;28;20277;-59
2021/12/10 05:40:23;;;;;;;8.73;2.97;;;2.20;1.00;;;;;;5037186;28;20235;-59
2021/12/10 05:42:51;;;;;;;7.23;2.67;;;2.20;1.00;;;;;;5039683;28;20902;-60
2021/12/10 05:45:20;;;;;;;6.63;3.13;;;2.20;1.00;;;;;;5037611;28;20200;-59
2021/12/10 05:47:48;;;;;;;8.87;2.90;;;2.20;1.00;;;;;;5039626;28;20215;-60
2021/12/10 05:50:25;;;;;;;8.20;3.30;;;2.20;1.00;;;;;;5038418;28;20202;-59
2021/12/10 05:52:55;;;;;;;10.07;4.03;;;2.10;1.00;;;;;;5037529;28;20249;-60
2021/12/10 05:55:23;;;;;;;6.87;3.40;;;2.00;1.00;;;;;;5023094;28;20204;-59
2021/12/10 05:57:51;;;;;;;5.97;3.90;;;1.90;1.00;;;;;;5040534;28;21068;-59
2021/12/10 06:00:23;;;;;;;7.57;3.60;;;1.90;1.00;;;;;;5028166;28;20232;-60
2021/12/10 06:02:50;;;;;;;9.90;3.93;;;1.80;1.00;;;;;;5040724;28;20563;-59
2021/12/10 06:05:18;;;;;;;7.73;4.20;;;1.90;1.00;;;;;;5036685;28;20224;-60
2021/12/10 06:07:46;;;;;;;9.77;3.50;;;1.90;1.00;;;;;;5022364;28;20599;-60
2021/12/10 06:10:15;;;;;;;8.90;3.70;;;1.90;1.00;;;;;;5027021;28;20204;-59
2021/12/10 06:12:44;;;;;;;9.23;3.27;;;1.90;1.00;;;;;;5021628;28;20275;-59
2021/12/10 06:15:14;;;;;;;8.33;2.70;;;1.90;1.00;;;;;;5039298;28;20248;-59
2021/12/10 06:17:42;;;;;;;7.10;3.17;;;1.90;1.00;;;;;;5038559;28;20253;-59
2021/12/10 06:20:11;;;;;;;6.50;3.40;;;2.00;1.00;;;;;;5021141;28;20870;-59
2021/12/10 06:22:38;;;;;;;6.33;3.20;;;2.10;1.00;;;;;;5026297;28;20226;-59
2021/12/10 06:25:07;;;;;;;4.97;2.90;;;2.00;1.00;;;;;;5019203;28;20188;-59
2021/12/10 06:27:36;;;;;;;8.27;3.57;;;2.00;1.00;;;;;;5035557;28;20235;-59
2021/12/10 06:30:05;;;;;;;6.27;2.80;;;2.10;1.00;;;;;;5039570;28;20199;-59
2021/12/10 06:32:32;;;;;;;8.77;3.47;;;2.00;1.00;;;;;;5039121;28;20202;-59
2021/12/10 06:34:59;;;;;;;5.33;3.13;;;2.00;1.00;;;;;;5034831;28;20204;-59
2021/12/10 06:37:26;;;;;;;5.80;2.70;;;1.90;1.00;;;;;;5037684;28;20219;-59
2021/12/10 06:39:53;;;;;;;7.43;3.43;;;1.90;1.00;;;;;;5002663;28;20227;-59
2021/12/10 06:42:20;;;;;;;7.57;3.00;;;1.90;1.00;;;;;;5032895;28;20188;-59
2021/12/10 06:45:04;;;;;;;7.70;3.13;;;1.80;1.00;;;;;;5034266;28;20460;-58
2021/12/10 06:47:31;;;;;;;6.43;2.93;;;1.80;1.00;;;;;;5035886;28;20200;-59
2021/12/10 06:49:59;;;;;;;4.97;3.30;;;1.80;1.00;;;;;;5018672;28;20224;-59
2021/12/10 06:52:26;;;;;;;8.63;3.30;;;1.70;1.00;;;;;;5040146;28;20278;-58
2021/12/10 06:54:53;;;;;;;10.80;3.40;;;1.70;1.00;;;;;;5043432;28;20211;-59
2021/12/10 06:57:20;;;;;;;11.07;3.80;;;1.70;1.00;;;;;;5040648;28;20624;-58
2021/12/10 06:59:47;;;;;;;8.80;3.93;;;1.70;1.00;;;;;;5044249;28;20227;-58
2021/12/10 07:02:14;;;;;;;15.47;4.00;;;1.70;1.00;;;;;;5042344;28;20920;-58
2021/12/10 07:04:42;;;;;;;7.53;3.87;;;1.60;1.00;;;;;;5042149;28;20203;-58
2021/12/10 07:07:14;;;;;;;5.77;4.37;;;1.60;1.00;;;;;;5041382;28;20313;-59
2021/12/10 07:09:41;;;;;;;4.27;3.40;;;1.50;21.60;;;;;;5038413;28;20621;-59
2021/12/10 07:12:09;;;;;;;7.03;3.80;;;1.50;99.90;;;;;;5041239;28;20618;-59
2021/12/10 07:14:36;;;;;;;8.27;3.67;;;1.50;99.90;;;;;;5024228;28;20211;-59
2021/12/10 07:17:04;;;;;;;6.13;3.83;;;1.50;99.90;;;;;;5040093;28;20211;-58
2021/12/10 07:19:31;;;;;;;5.67;4.07;;;1.50;99.90;;;;;;5040455;28;20242;-59
2021/12/10 07:21:58;;;;;;;6.50;4.53;;;1.50;99.90;;;;;;5040373;28;20394;-59
2021/12/10 07:24:25;;;;;;;5.23;3.40;;;1.40;99.90;;;;;;5023518;28;20195;-59
2021/12/10 07:26:52;;;;;;;5.47;4.03;;;1.40;99.90;;;;;;5028928;28;20203;-58
2021/12/10 07:29:21;;;;;;;5.93;3.97;;;1.40;99.90;;;;;;5029460;28;20212;-58
2021/12/10 07:31:48;;;;;;;10.23;4.30;;;1.40;99.90;;;;;;5021683;28;20177;-59
2021/12/10 07:34:15;;;;;;;6.07;4.00;;;1.40;99.90;;;;;;5041311;28;20195;-58
2021/12/10 07:36:42;;;;;;;8.30;4.17;;;1.40;99.90;;;;;;5037735;28;20246;-58
2021/12/10 07:39:10;;;;;;;5.83;4.20;;;1.40;83.80;;;;;;5038923;28;20571;-58
2021/12/10 07:41:40;;;;;;;9.57;4.13;;;1.40;22.10;;;;;;5040487;28;20196;-58
2021/12/10 07:44:08;;;;;;;6.57;3.70;;;1.50;1.00;;;;;;5040030;28;20692;-58
2021/12/10 07:46:36;;;;;;;8.00;4.10;;;1.50;1.00;;;;;;5034524;28;20282;-59
2021/12/10 07:49:06;;;;;;;7.37;4.33;;;1.50;1.00;;;;;;5027712;28;20198;-58
2021/12/10 07:51:33;;;;;;;7.60;4.50;;;1.60;1.00;;;;;;5033804;28;20200;-58
2021/12/10 07:54:01;;;;;;;36.97;6.93;;;1.60;1.00;;;;;;5045980;28;20272;-59
2021/12/10 07:56:30;;;;;;;6.50;4.00;;;1.60;1.00;;;;;;5050361;28;20218;-58
2021/12/10 07:58:58;;;;;;;5.80;4.30;;;1.60;1.00;;;;;;5050667;28;20350;-58
2021/12/10 08:01:28;;;;;;;7.07;4.17;;;1.70;1.00;;;;;;5049421;28;20195;-58
2021/12/10 08:03:57;;;;;;;7.10;4.57;;;1.70;1.00;;;;;;5046173;28;20227;-58
2021/12/10 08:06:26;;;;;;;6.40;4.27;;;1.70;1.00;;;;;;5031694;28;20203;-58
2021/12/10 08:08:53;;;;;;;6.10;4.20;;;1.80;1.00;;;;;;5029787;28;20192;-58
2021/12/10 08:11:21;;;;;;;7.73;4.03;;;1.80;1.00;;;;;;5028004;28;20199;-58
2021/12/10 08:13:49;;;;;;;5.67;3.90;;;1.90;1.00;;;;;;5049674;28;20264;-58
2021/12/10 08:16:17;;;;;;;9.53;4.13;;;1.90;1.00;;;;;;5030672;28;20605;-60
2021/12/10 08:18:45;;;;;;;8.63;4.23;;;1.90;1.00;;;;;;5050143;28;20333;-60
2021/12/10 08:21:13;;;;;;;5.33;3.67;;;2.00;1.00;;;;;;5049864;28;20205;-58
2021/12/10 08:23:40;;;;;;;6.57;3.90;;;2.00;1.00;;;;;;5032497;28;20200;-58
2021/12/10 08:26:09;;;;;;;6.23;3.80;;;2.10;1.00;;;;;;5032900;28;20244;-58
2021/12/10 08:28:36;;;;;;;4.63;3.10;;;2.20;99.90;;;;;;5048943;28;20654;-58
2021/12/10 08:31:05;;;;;;;7.63;3.47;;;2.20;99.90;;;;;;5030069;28;20674;-58
2021/12/10 08:33:33;;;;;;;6.73;3.50;;;2.30;99.90;;;;;;5050638;28;20203;-58
2021/12/10 08:36:04;;;;;;;7.17;3.57;;;2.30;99.90;;;;;;5051688;28;20872;-58
2021/12/10 08:38:32;;;;;;;9.73;3.67;;;2.40;99.90;;;;;;5045568;28;20318;-58
2021/12/10 08:41:06;;;;;;;7.90;3.30;;;2.40;99.90;;;;;;5048722;28;20234;-58
2021/12/10 08:43:34;;;;;;;9.10;4.03;;;2.50;99.90;;;;;;5051567;28;20195;-58
2021/12/10 08:46:03;;;;;;;7.13;3.63;;;2.50;99.90;;;;;;5050743;28;20196;-58
2021/12/10 08:48:32;;;;;;;5.73;3.27;;;2.60;99.90;;;;;;5051492;28;20270;-58
2021/12/10 08:51:12;;;;;;;6.67;3.70;;;2.60;99.90;;;;;;5042005;28;20850;-59
2021/12/10 08:53:40;;;;;;;6.17;3.47;;;2.60;99.90;;;;;;5008709;28;20214;-59
2021/12/10 08:56:07;;;;;;;9.73;3.70;;;2.70;99.90;;;;;;5045981;28;20191;-59
2021/12/10 08:58:34;;;;;;;12.47;3.93;;;2.70;99.90;;;;;;5049427;28;20265;-58
2021/12/10 09:01:09;;;;;;;6.17;3.47;;;2.90;57.40;;;;;;5049733;28;20245;-58
2021/12/10 09:03:44;;;;;;;7.07;3.50;;;2.90;11.60;;;;;;5035148;28;20226;-60
2021/12/10 09:06:12;;;;;;;6.67;3.67;;;3.00;3.80;;;;;;5049595;28;20199;-59
2021/12/10 09:08:40;;;;;;;7.40;3.30;;;3.10;1.00;;;;;;5027658;28;20206;-60
2021/12/10 09:11:10;;;;;;;6.10;2.90;;;3.20;1.00;;;;;;5032203;28;20310;-60
2021/12/10 09:13:37;;;;;;;4.20;3.37;;;3.50;1.00;;;;;;5048747;28;20205;-60
2021/12/10 09:16:11;;;;;;;6.40;3.00;;;6.00;99.90;;;;;;5046500;28;20246;-58
2021/12/10 09:18:40;;;;;;;5.63;2.60;;;9.50;99.90;;;;;;5042443;28;20207;-57
2021/12/10 09:21:09;;;;;;;10.30;2.97;;;11.40;99.90;;;;;;5049697;28;20528;-58
2021/12/10 09:23:37;;;;;;;7.97;2.67;;;11.80;99.90;;;;;;5051305;28;20187;-58
2021/12/10 09:26:10;;;;;;;7.20;2.60;;;12.20;99.90;;;;;;5048784;28;20721;-58
2021/12/10 09:28:40;;;;;;;6.30;2.90;;;12.40;99.90;;;;;;5047161;28;20206;-59
2021/12/10 09:31:09;;;;;;;8.87;2.30;;;13.60;99.90;;;;;;5048854;28;20204;-59
2021/12/10 09:33:36;;;;;;;6.53;2.80;;;14.20;99.90;;;;;;5050086;28;20208;-59
2021/12/10 09:36:05;;;;;;;6.67;2.40;;;14.60;99.90;;;;;;5028658;28;20281;-59
2021/12/10 09:38:33;;;;;;;4.83;2.77;;;13.70;99.90;;;;;;5050269;28;20240;-59
2021/12/10 09:41:04;;;;;;;8.23;2.90;;;14.10;99.90;;;;;;5027272;28;20207;-59
2021/12/10 09:43:33;;;;;;;6.67;3.20;;;15.00;99.90;;;;;;5045708;28;20241;-60
2021/12/10 09:46:01;;;;;;;4.53;3.10;;;15.60;99.90;;;;;;5047479;28;20191;-60
2021/12/10 09:48:28;;;;;;;5.03;3.10;;;15.20;99.50;;;;;;5048891;28;20286;-59
2021/12/10 09:51:07;;;;;;;6.18;3.10;;;15.70;99.90;;;;;;5047285;28;20224;-59
2021/12/10 09:53:38;;;;;;;8.93;3.03;;;15.50;97.20;;;;;;5048321;28;20199;-60
2021/12/10 09:56:07;;;;;;;7.03;3.03;;;14.80;96.80;;;;;;5045902;28;20315;-60
2021/12/10 09:58:34;;;;;;;6.20;2.67;;;14.50;95.40;;;;;;5030633;28;20590;-59
2021/12/10 10:01:12;;;;;;;5.90;2.50;;;14.20;93.90;;;;;;5044674;28;20196;-62
2021/12/10 10:03:41;;;;;;;8.30;3.30;;;14.00;93.30;;;;;;5043155;28;20698;-61
2021/12/10 10:06:11;;;;;;;8.73;3.33;;;14.80;94.80;;;;;;5044760;28;20273;-59
2021/12/10 10:08:39;;;;;;;7.00;4.10;;;14.30;93.80;;;;;;5045829;28;20203;-59
2021/12/10 10:11:21;;;;;;;5.47;3.30;;;14.60;93.20;;;;;;5043469;28;20181;-59
2021/12/10 10:13:50;;;;;;;9.77;4.88;;;14.40;92.40;;;;;;5048747;28;20191;-60
2021/12/10 10:16:20;;;;;;;11.47;4.63;;;14.40;91.90;;;;;;5031363;28;20258;-60
2021/12/10 10:18:49;;;;;;;9.70;3.20;;;14.60;91.70;;;;;;5028146;28;20850;-60
2021/12/10 10:21:21;;;;;;;10.00;3.57;;;13.60;89.00;;;;;;5046016;28;20203;-59
2021/12/10 10:23:49;;;;;;;7.47;2.97;;;14.00;90.60;;;;;;5045420;28;20654;-59
2021/12/10 10:26:31;;;;;;;7.37;4.03;;;14.60;90.70;;;;;;5046904;28;21374;-59
2021/12/10 10:29:08;;;;;;;8.73;3.70;;;14.20;89.60;;;;;;5050931;28;20199;-59
2021/12/10 10:31:39;;;;;;;9.33;4.17;;;14.80;90.40;;;;;;5051101;28;20195;-59
2021/12/10 10:34:07;;;;;;;10.40;3.97;;;14.20;88.90;;;;;;5050023;28;20215;-60
2021/12/10 10:36:35;;;;;;;5.97;3.03;;;14.70;90.40;;;;;;5050643;28;20191;-60
2021/12/10 10:39:09;;;;;;;6.90;3.40;;;15.20;89.80;;;;;;5051392;28;20667;-60
2021/12/10 10:41:45;;;;;;;7.03;3.50;;;14.50;82.90;;;;;;5031395;28;20895;-60
2021/12/10 10:44:13;;;;;;;5.27;2.60;;;14.90;90.10;;;;;;5052609;28;20250;-60
2021/12/10 10:46:40;;;;;;;6.20;3.33;;;14.90;87.90;;;;;;5050409;28;20217;-60
2021/12/10 10:49:07;;;;;;;7.72;2.72;;;15.20;88.70;;;;;;5051622;28;20686;-60
2021/12/10 10:51:39;;;;;;;6.82;2.42;;;14.00;80.60;;;;;;5050404;28;20257;-60
2021/12/10 10:54:10;;;;;;;7.10;2.80;;;14.40;82.70;;;;;;5015746;28;20230;-59
2021/12/10 10:56:46;;;;;;;4.65;1.77;;;15.40;99.70;;;;;;5051597;28;20227;-59
2021/12/10 10:59:22;;;;;;;4.37;1.90;;;14.20;77.50;;;;;;5034773;28;20222;-59
2021/12/10 11:01:58;;;;;;;4.63;1.70;;;12.70;75.30;;;;;;5016425;28;20889;-58
2021/12/10 11:04:35;;;;;;;6.40;1.97;;;12.00;94.80;;;;;;5031183;28;20227;-58
2021/12/10 11:07:17;;;;;;;9.17;1.73;;;13.50;81.70;;;;;;5047153;28;20706;-58
2021/12/10 11:09:59;;;;;;;5.90;1.63;;;12.30;76.80;;;;;;5040192;28;20193;-58
2021/12/10 11:12:31;;;;;;;2.83;1.50;;;12.40;79.70;;;;;;5034917;28;20219;-58
2021/12/10 11:15:01;;;;;;;4.37;2.07;;;11.60;77.10;;;;;;5041635;28;20593;-59
2021/12/10 11:17:33;;;;;;;2.50;1.53;;;11.70;79.10;;;;;;5024081;28;20423;-59
2021/12/10 11:20:30;;;;;;;5.57;1.80;;;11.30;78.70;;;;;;5023063;28;20271;-59
2021/12/10 11:23:03;;;;;;;5.77;2.03;;;10.30;74.60;;;;;;5044171;28;20196;-59
2021/12/10 11:25:56;;;;;;;6.23;1.57;;;10.10;80.50;;;;;;5040947;28;20216;-57
2021/12/10 11:28:30;;;;;;;5.53;2.13;;;9.90;90.90;;;;;;5040779;28;20199;-57
2021/12/10 11:31:04;;;;;;;3.90;1.93;;;9.90;93.90;;;;;;5022633;28;20238;-58
2021/12/10 11:33:36;;;;;;;4.43;1.73;;;9.90;99.90;;;;;;5042611;28;20225;-58
2021/12/10 11:36:11;;;;;;;4.33;1.87;;;10.00;91.80;;;;;;5021954;28;20950;-58
2021/12/10 11:38:39;;;;;;;5.70;1.60;;;10.00;93.70;;;;;;5040731;28;20242;-58
2021/12/10 11:41:18;;;;;;;3.60;1.60;;;9.60;95.00;;;;;;5044445;28;20192;-58
2021/12/10 11:43:55;;;;;;;6.70;1.60;;;9.20;99.70;;;;;;5044140;28;20651;-58
2021/12/10 11:46:42;;;;;;;5.27;1.60;;;9.70;99.40;;;;;;5041029;28;20203;-58
2021/12/10 11:49:18;;;;;;;4.37;1.57;;;9.30;99.90;;;;;;5036939;28;20188;-58
2021/12/10 11:51:55;;;;;;;7.43;1.60;;;9.60;97.80;;;;;;5035644;28;20221;-58
2021/12/10 11:54:43;;;;;;;5.00;1.67;;;10.00;96.90;;;;;;5036666;28;20316;-59
2021/12/10 11:57:18;;;;;;;4.43;1.80;;;9.70;94.80;;;;;;5039340;28;20569;-58
2021/12/10 11:59:57;;;;;;;8.57;1.40;;;9.40;99.90;;;;;;5040074;28;20235;-58
2021/12/10 12:02:30;;;;;;;6.03;2.30;;;9.50;99.90;;;;;;5038781;28;20203;-57
2021/12/10 12:04:58;;;;;;;5.50;1.50;;;9.20;99.30;;;;;;5039232;28;20334;-57
2021/12/10 12:07:39;;;;;;;4.07;1.83;;;8.90;99.90;;;;;;5042441;28;20856;-57
2021/12/10 12:10:14;;;;;;;4.67;1.60;;;9.10;99.90;;;;;;5041679;28;20199;-56
2021/12/10 12:12:54;;;;;;;5.37;1.97;;;9.20;99.90;;;;;;5042390;28;20260;-56
2021/12/10 12:15:28;;;;;;;2.50;1.43;;;9.10;99.90;;;;;;5040227;28;20228;-57
2021/12/10 12:18:03;;;;;;;5.27;1.80;;;8.80;99.90;;;;;;5021725;28;20219;-57
2021/12/10 12:20:52;;;;;;;4.77;2.30;;;8.70;99.90;;;;;;5040147;28;20270;-57
2021/12/10 12:26:27;;;;;;;4.90;1.60;;;8.10;99.90;;;;;;5037542;28;20208;-57
2021/12/10 12:29:15;;;;;;;13.27;2.80;;;7.60;99.90;;;;;;5026176;28;20635;-58
2021/12/10 12:31:45;;;;;;;6.73;2.73;;;7.30;99.90;;;;;;5026299;28;20207;-57
2021/12/10 12:34:27;;;;;;;7.53;1.90;;;7.40;99.90;;;;;;5041763;28;20263;-57
2021/12/10 12:37:09;;;;;;;6.40;3.33;;;7.30;99.90;;;;;;5018252;28;20618;-57
2021/12/10 12:40:00;;;;;;;7.10;2.73;;;7.20;99.90;;;;;;5045080;28;20239;-57
2021/12/10 12:42:36;;;;;;;4.43;1.90;;;7.00;99.90;;;;;;5042732;28;20191;-57
2021/12/10 12:45:17;;;;;;;3.50;1.57;;;6.90;99.90;;;;;;5047882;28;20542;-57
2021/12/10 12:48:11;;;;;;;6.40;1.63;;;7.10;99.90;;;;;;5031617;28;20228;-57
2021/12/10 12:50:46;;;;;;;3.23;2.30;;;7.10;99.90;;;;;;5042993;28;20671;-57
2021/12/10 12:53:21;;;;;;;4.57;1.50;;;6.90;1.00;;;;;;5043172;28;20209;-56
2021/12/10 12:56:07;;;;;;;4.10;1.50;;;7.00;1.00;;;;;;5026284;28;20215;-57
2021/12/10 12:59:06;;;;;;;3.23;1.37;;;6.80;1.00;;;;;;5051392;28;20218;-56
2021/12/10 13:01:43;;;;;;;4.23;1.60;;;6.90;1.00;;;;;;5046175;28;20186;-57
2021/12/10 13:04:27;;;;;;;4.67;1.63;;;6.70;1.00;;;;;;5043326;28;20221;-57
2021/12/10 13:07:18;;;;;;;9.23;1.70;;;6.70;1.00;;;;;;5033803;28;20199;-56
2021/12/10 13:09:54;;;;;;;4.43;1.60;;;6.70;1.00;;;;;;5030090;28;20210;-57
2021/12/10 13:12:54;;;;;;;7.07;2.10;;;6.80;1.00;;;;;;5046850;28;20206;-57
2021/12/10 13:15:28;;;;;;;4.03;1.50;;;6.90;1.00;;;;;;5030416;28;20237;-57
2021/12/10 13:18:02;;;;;;;3.73;1.60;;;7.00;1.00;;;;;;5045549;28;20693;-57
2021/12/10 13:20:33;;;;;;;2.57;1.40;;;7.10;99.90;;;;;;5047103;28;20196;-57
2021/12/10 13:23:11;;;;;;;4.00;1.40;;;7.00;1.00;;;;;;5050006;28;20546;-57
2021/12/10 13:25:39;;;;;;;2.50;1.20;;;6.80;1.00;;;;;;5041895;28;20222;-57
2021/12/10 13:28:06;;;;;;;4.13;1.50;;;6.50;1.00;;;;;;5043414;28;20638;-57
2021/12/10 13:30:45;;;;;;;4.07;1.60;;;6.40;1.00;;;;;;5038805;28;21170;-57